Fairborn, Ohio
Current Conditions -  °F | °C
As of 10:58 PM on Sunday 21 Dec 2014 (Local Time) from KFFO Reporting Station
Clear Clear  
Wind Chill: 26°   Ceiling: Unl
Heat Index: 26°   Visibility: 10mi
Dew Point: 22°   Wind: 2mph
Humidity: 84%   Direction: 20°NNE
Pressure: 30.14"   Gusts: NA
Location:  39.83°N, 84.02°W
Report Text: KFFO 220358Z AUTO 02002KT 10SM CLR M03/M05 A3014 RMK AO2 SLP219 T10311054
Loading
Personal Weather Stations






























Interactive Weather Map New forecast layout! Learn more

10-Day Weather Forecast

Advertisements
Track Severe Weather on mobile